sensor_id;sensor_type;location;lat;lon;timestamp;temperature;humidity
13850;DHT22;6995;52.618;13.488;2023-05-02T00:01:04;13.80;99.90
13850;DHT22;6995;52.618;13.488;2023-05-02T00:03:33;13.70;99.90
13850;DHT22;6995;52.618;13.488;2023-05-02T00:05:59;13.70;99.90
13850;DHT22;6995;52.618;13.488;2023-05-02T00:08:25;13.60;99.90
13850;DHT22;6995;52.618;13.488;2023-05-02T00:10:50;13.50;99.90
13850;DHT22;6995;52.618;13.488;2023-05-02T00:13:16;13.50;99.90
13850;DHT22;6995;52.618;13.488;2023-05-02T00:15:42;13.40;99.90
13850;DHT22;6995;52.618;13.488;2023-05-02T00:18:07;13.40;99.90
13850;DHT22;6995;52.618;13.488;2023-05-02T00:20:33;13.50;99.90
13850;DHT22;6995;52.618;13.488;2023-05-02T00:22:58;13.40;99.90
13850;DHT22;6995;52.618;13.488;2023-05-02T00:25:24;13.40;99.90
13850;DHT22;6995;52.618;13.488;2023-05-02T00:27:50;13.40;99.90
13850;DHT22;6995;52.618;13.488;2023-05-02T00:30:17;13.30;99.90
13850;DHT22;6995;52.618;13.488;2023-05-02T00:32:43;13.30;99.90
13850;DHT22;6995;52.618;13.488;2023-05-02T00:35:09;13.40;99.90
13850;DHT22;6995;52.618;13.488;2023-05-02T00:37:47;13.30;99.90
13850;DHT22;6995;52.618;13.488;2023-05-02T00:40:13;13.30;99.90
13850;DHT22;6995;52.618;13.488;2023-05-02T00:42:38;13.30;99.90
13850;DHT22;6995;52.618;13.488;2023-05-02T00:45:04;13.20;99.90
13850;DHT22;6995;52.618;13.488;2023-05-02T00:47:30;13.20;99.90
13850;DHT22;6995;52.618;13.488;2023-05-02T00:49:56;13.10;99.90
13850;DHT22;6995;52.618;13.488;2023-05-02T00:52:23;13.10;99.90
13850;DHT22;6995;52.618;13.488;2023-05-02T00:54:49;13.00;99.90
13850;DHT22;6995;52.618;13.488;2023-05-02T00:57:15;13.00;99.90
13850;DHT22;6995;52.618;13.488;2023-05-02T00:59:41;13.00;99.90
13850;DHT22;6995;52.618;13.488;2023-05-02T01:05:20;13.10;99.90
13850;DHT22;6995;52.618;13.488;2023-05-02T01:13:19;12.90;99.90
13850;DHT22;6995;52.618;13.488;2023-05-02T01:15:47;12.90;99.90
13850;DHT22;6995;52.618;13.488;2023-05-02T01:18:18;12.90;99.90
13850;DHT22;6995;52.618;13.488;2023-05-02T01:20:47;12.80;99.90
13850;DHT22;6995;52.618;13.488;2023-05-02T01:26:26;12.80;99.90
13850;DHT22;6995;52.618;13.488;2023-05-02T01:29:05;12.80;99.90
13850;DHT22;6995;52.618;13.488;2023-05-02T01:31:37;12.70;99.90
13850;DHT22;6995;52.618;13.488;2023-05-02T01:34:05;12.70;99.90
13850;DHT22;6995;52.618;13.488;2023-05-02T01:36:33;12.70;99.90
13850;DHT22;6995;52.618;13.488;2023-05-02T01:39:00;12.70;99.90
13850;DHT22;6995;52.618;13.488;2023-05-02T01:41:29;12.70;99.90
13850;DHT22;6995;52.618;13.488;2023-05-02T01:44:01;12.80;99.90
13850;DHT22;6995;52.618;13.488;2023-05-02T01:46:30;12.70;99.90
13850;DHT22;6995;52.618;13.488;2023-05-02T01:48:57;12.80;99.90
13850;DHT22;6995;52.618;13.488;2023-05-02T01:51:27;12.70;99.90
13850;DHT22;6995;52.618;13.488;2023-05-02T01:53:57;12.70;99.90
13850;DHT22;6995;52.618;13.488;2023-05-02T01:56:24;12.70;99.90
13850;DHT22;6995;52.618;13.488;2023-05-02T01:58:52;12.60;99.90
13850;DHT22;6995;52.618;13.488;2023-05-02T02:01:18;12.50;99.90
13850;DHT22;6995;52.618;13.488;2023-05-02T02:03:45;12.50;99.90
13850;DHT22;6995;52.618;13.488;2023-05-02T02:06:12;12.50;99.90
13850;DHT22;6995;52.618;13.488;2023-05-02T02:08:38;12.50;99.90
13850;DHT22;6995;52.618;13.488;2023-05-02T02:11:08;12.50;99.90
13850;DHT22;6995;52.618;13.488;2023-05-02T02:13:40;12.50;99.90
13850;DHT22;6995;52.618;13.488;2023-05-02T02:16:11;12.50;99.90
13850;DHT22;6995;52.618;13.488;2023-05-02T02:18:38;12.40;99.90
13850;DHT22;6995;52.618;13.488;2023-05-02T02:21:08;12.40;99.90
13850;DHT22;6995;52.618;13.488;2023-05-02T02:23:35;12.40;99.90
13850;DHT22;6995;52.618;13.488;2023-05-02T02:26:03;12.40;99.90
13850;DHT22;6995;52.618;13.488;2023-05-02T02:28:29;12.30;99.90
13850;DHT22;6995;52.618;13.488;2023-05-02T02:30:56;12.30;99.90
13850;DHT22;6995;52.618;13.488;2023-05-02T02:33:23;12.20;99.90
13850;DHT22;6995;52.618;13.488;2023-05-02T02:36:05;12.20;99.90
13850;DHT22;6995;52.618;13.488;2023-05-02T02:38:46;12.10;99.90
13850;DHT22;6995;52.618;13.488;2023-05-02T02:41:26;12.10;99.90
13850;DHT22;6995;52.618;13.488;2023-05-02T02:43:59;12.10;99.90
13850;DHT22;6995;52.618;13.488;2023-05-02T02:46:58;12.00;99.90
13850;DHT22;6995;52.618;13.488;2023-05-02T02:49:48;12.00;99.90
13850;DHT22;6995;52.618;13.488;2023-05-02T02:52:36;11.90;99.90
13850;DHT22;6995;52.618;13.488;2023-05-02T03:00:32;11.70;99.90
13850;DHT22;6995;52.618;13.488;2023-05-02T03:02:59;11.70;99.90
13850;DHT22;6995;52.618;13.488;2023-05-02T03:05:25;11.70;99.90
13850;DHT22;6995;52.618;13.488;2023-05-02T03:07:51;11.70;99.90
13850;DHT22;6995;52.618;13.488;2023-05-02T03:10:17;11.60;99.90
13850;DHT22;6995;52.618;13.488;2023-05-02T03:12:42;11.60;99.90
13850;DHT22;6995;52.618;13.488;2023-05-02T03:18:02;11.50;99.90
13850;DHT22;6995;52.618;13.488;2023-05-02T03:20:28;11.50;99.90
13850;DHT22;6995;52.618;13.488;2023-05-02T03:22:53;11.50;99.90
13850;DHT22;6995;52.618;13.488;2023-05-02T03:25:19;11.40;99.90
13850;DHT22;6995;52.618;13.488;2023-05-02T03:27:45;11.40;99.90
13850;DHT22;6995;52.618;13.488;2023-05-02T03:30:11;11.40;99.90
13850;DHT22;6995;52.618;13.488;2023-05-02T03:32:36;11.30;99.90
13850;DHT22;6995;52.618;13.488;2023-05-02T03:35:02;11.20;99.90
13850;DHT22;6995;52.618;13.488;2023-05-02T03:37:28;11.10;99.90
13850;DHT22;6995;52.618;13.488;2023-05-02T03:39:53;11.10;99.90
13850;DHT22;6995;52.618;13.488;2023-05-02T03:42:20;11.00;99.90
13850;DHT22;6995;52.618;13.488;2023-05-02T03:44:46;11.00;99.90
13850;DHT22;6995;52.618;13.488;2023-05-02T03:47:11;10.90;99.90
13850;DHT22;6995;52.618;13.488;2023-05-02T03:49:39;10.90;99.90
13850;DHT22;6995;52.618;13.488;2023-05-02T03:52:04;10.90;99.90
13850;DHT22;6995;52.618;13.488;2023-05-02T03:54:33;10.80;99.90
13850;DHT22;6995;52.618;13.488;2023-05-02T03:56:59;10.80;99.90
13850;DHT22;6995;52.618;13.488;2023-05-02T03:59:25;10.70;99.90
13850;DHT22;6995;52.618;13.488;2023-05-02T04:01:51;10.70;99.90
13850;DHT22;6995;52.618;13.488;2023-05-02T04:04:17;10.70;99.90
13850;DHT22;6995;52.618;13.488;2023-05-02T04:06:42;10.60;99.90
13850;DHT22;6995;52.618;13.488;2023-05-02T04:09:08;10.60;99.90
13850;DHT22;6995;52.618;13.488;2023-05-02T04:11:34;10.60;99.90
13850;DHT22;6995;52.618;13.488;2023-05-02T04:13:59;10.60;99.90
13850;DHT22;6995;52.618;13.488;2023-05-02T04:16:25;10.50;99.90
13850;DHT22;6995;52.618;13.488;2023-05-02T04:18:51;10.50;99.90
13850;DHT22;6995;52.618;13.488;2023-05-02T04:21:16;10.60;99.90
13850;DHT22;6995;52.618;13.488;2023-05-02T04:23:42;10.60;99.90
13850;DHT22;6995;52.618;13.488;2023-05-02T04:26:08;10.70;99.90
13850;DHT22;6995;52.618;13.488;2023-05-02T04:28:34;10.70;99.90
13850;DHT22;6995;52.618;13.488;2023-05-02T04:31:01;10.70;99.90
13850;DHT22;6995;52.618;13.488;2023-05-02T04:33:28;10.80;99.90
13850;DHT22;6995;52.618;13.488;2023-05-02T04:35:54;10.80;99.90
13850;DHT22;6995;52.618;13.488;2023-05-02T04:38:20;10.80;99.90
13850;DHT22;6995;52.618;13.488;2023-05-02T04:40:46;10.90;99.90
13850;DHT22;6995;52.618;13.488;2023-05-02T04:43:11;10.90;99.90
13850;DHT22;6995;52.618;13.488;2023-05-02T04:45:37;11.00;99.90
13850;DHT22;6995;52.618;13.488;2023-05-02T04:48:03;11.00;99.90
13850;DHT22;6995;52.618;13.488;2023-05-02T04:50:29;11.00;99.90
13850;DHT22;6995;52.618;13.488;2023-05-02T04:52:54;11.00;99.90
13850;DHT22;6995;52.618;13.488;2023-05-02T04:55:20;11.10;99.90
13850;DHT22;6995;52.618;13.488;2023-05-02T04:57:46;11.10;99.90
13850;DHT22;6995;52.618;13.488;2023-05-02T05:00:12;11.10;99.90
13850;DHT22;6995;52.618;13.488;2023-05-02T05:02:37;11.20;99.90
13850;DHT22;6995;52.618;13.488;2023-05-02T05:05:04;11.20;99.90
13850;DHT22;6995;52.618;13.488;2023-05-02T05:07:30;11.20;99.90
13850;DHT22;6995;52.618;13.488;2023-05-02T05:09:55;11.20;99.90
13850;DHT22;6995;52.618;13.488;2023-05-02T05:12:21;11.30;99.90
13850;DHT22;6995;52.618;13.488;2023-05-02T05:14:48;11.20;99.90
13850;DHT22;6995;52.618;13.488;2023-05-02T05:17:15;11.30;99.90
13850;DHT22;6995;52.618;13.488;2023-05-02T05:19:40;11.40;99.90
13850;DHT22;6995;52.618;13.488;2023-05-02T05:22:07;11.50;99.90
13850;DHT22;6995;52.618;13.488;2023-05-02T05:24:32;11.50;99.90
13850;DHT22;6995;52.618;13.488;2023-05-02T05:26:58;11.50;99.90
13850;DHT22;6995;52.618;13.488;2023-05-02T05:29:24;11.60;99.90
13850;DHT22;6995;52.618;13.488;2023-05-02T05:31:49;11.60;99.90
13850;DHT22;6995;52.618;13.488;2023-05-02T05:34:15;11.60;99.90
13850;DHT22;6995;52.618;13.488;2023-05-02T05:36:41;11.70;99.90
13850;DHT22;6995;52.618;13.488;2023-05-02T05:39:07;11.70;99.90
13850;DHT22;6995;52.618;13.488;2023-05-02T05:41:32;11.80;99.90
13850;DHT22;6995;52.618;13.488;2023-05-02T05:43:59;11.80;99.90
13850;DHT22;6995;52.618;13.488;2023-05-02T05:46:25;11.90;99.90
13850;DHT22;6995;52.618;13.488;2023-05-02T05:48:51;12.00;99.90
13850;DHT22;6995;52.618;13.488;2023-05-02T05:51:16;12.00;99.90
13850;DHT22;6995;52.618;13.488;2023-05-02T05:53:42;12.10;99.90
13850;DHT22;6995;52.618;13.488;2023-05-02T05:56:11;12.20;99.90
13850;DHT22;6995;52.618;13.488;2023-05-02T05:58:38;12.20;99.90
13850;DHT22;6995;52.618;13.488;2023-05-02T06:01:04;12.30;99.90
13850;DHT22;6995;52.618;13.488;2023-05-02T06:03:30;12.50;99.90
13850;DHT22;6995;52.618;13.488;2023-05-02T06:05:56;12.50;99.90
13850;DHT22;6995;52.618;13.488;2023-05-02T06:08:21;12.70;99.90
13850;DHT22;6995;52.618;13.488;2023-05-02T06:10:47;12.80;99.90
13850;DHT22;6995;52.618;13.488;2023-05-02T06:13:13;12.70;99.90
13850;DHT22;6995;52.618;13.488;2023-05-02T06:15:38;12.90;99.90
13850;DHT22;6995;52.618;13.488;2023-05-02T06:18:04;13.00;99.90
13850;DHT22;6995;52.618;13.488;2023-05-02T06:20:29;13.00;99.90
13850;DHT22;6995;52.618;13.488;2023-05-02T06:22:55;12.90;99.90
13850;DHT22;6995;52.618;13.488;2023-05-02T06:25:21;13.10;99.90
13850;DHT22;6995;52.618;13.488;2023-05-02T06:27:46;13.10;99.90
13850;DHT22;6995;52.618;13.488;2023-05-02T06:30:12;13.10;99.90
13850;DHT22;6995;52.618;13.488;2023-05-02T06:32:38;13.20;99.90
13850;DHT22;6995;52.618;13.488;2023-05-02T06:35:03;13.30;99.90
13850;DHT22;6995;52.618;13.488;2023-05-02T06:37:35;13.20;99.90
13850;DHT22;6995;52.618;13.488;2023-05-02T06:40:02;13.10;99.90
13850;DHT22;6995;52.618;13.488;2023-05-02T06:42:28;12.90;99.90
13850;DHT22;6995;52.618;13.488;2023-05-02T06:44:54;13.10;99.90
13850;DHT22;6995;52.618;13.488;2023-05-02T06:47:20;13.00;99.90
13850;DHT22;6995;52.618;13.488;2023-05-02T06:49:46;13.20;99.90
13850;DHT22;6995;52.618;13.488;2023-05-02T06:52:12;13.20;99.90
13850;DHT22;6995;52.618;13.488;2023-05-02T06:54:37;13.20;99.90
13850;DHT22;6995;52.618;13.488;2023-05-02T06:57:03;13.10;99.90
13850;DHT22;6995;52.618;13.488;2023-05-02T06:59:30;13.20;99.90
13850;DHT22;6995;52.618;13.488;2023-05-02T07:01:55;13.20;99.90
13850;DHT22;6995;52.618;13.488;2023-05-02T07:04:21;13.70;99.90
13850;DHT22;6995;52.618;13.488;2023-05-02T07:06:46;13.80;99.90
13850;DHT22;6995;52.618;13.488;2023-05-02T07:09:12;13.80;99.90
13850;DHT22;6995;52.618;13.488;2023-05-02T07:11:38;14.10;99.90
13850;DHT22;6995;52.618;13.488;2023-05-02T07:14:03;14.40;99.90
13850;DHT22;6995;52.618;13.488;2023-05-02T07:16:29;14.70;99.90
13850;DHT22;6995;52.618;13.488;2023-05-02T07:18:55;14.30;99.90
13850;DHT22;6995;52.618;13.488;2023-05-02T07:21:20;14.50;99.90
13850;DHT22;6995;52.618;13.488;2023-05-02T07:23:46;14.30;99.90
13850;DHT22;6995;52.618;13.488;2023-05-02T07:26:12;14.50;99.90
13850;DHT22;6995;52.618;13.488;2023-05-02T07:28:37;14.70;99.90
13850;DHT22;6995;52.618;13.488;2023-05-02T07:31:03;14.70;99.90
13850;DHT22;6995;52.618;13.488;2023-05-02T07:33:29;15.00;99.90
13850;DHT22;6995;52.618;13.488;2023-05-02T07:35:57;15.10;99.90
13850;DHT22;6995;52.618;13.488;2023-05-02T07:38:23;15.00;99.90
13850;DHT22;6995;52.618;13.488;2023-05-02T07:40:48;15.10;99.90
13850;DHT22;6995;52.618;13.488;2023-05-02T07:43:14;14.90;99.90
13850;DHT22;6995;52.618;13.488;2023-05-02T07:45:40;15.10;99.90
13850;DHT22;6995;52.618;13.488;2023-05-02T07:48:06;15.20;99.90
13850;DHT22;6995;52.618;13.488;2023-05-02T07:50:32;14.90;99.90
13850;DHT22;6995;52.618;13.488;2023-05-02T07:52:57;14.80;99.90
13850;DHT22;6995;52.618;13.488;2023-05-02T07:55:23;15.30;99.90
13850;DHT22;6995;52.618;13.488;2023-05-02T07:57:51;15.40;99.90
13850;DHT22;6995;52.618;13.488;2023-05-02T08:00:17;15.80;99.90
13850;DHT22;6995;52.618;13.488;2023-05-02T08:02:42;16.20;99.90
13850;DHT22;6995;52.618;13.488;2023-05-02T08:05:09;16.20;99.90
13850;DHT22;6995;52.618;13.488;2023-05-02T08:07:35;15.90;99.90
13850;DHT22;6995;52.618;13.488;2023-05-02T08:10:01;15.70;99.90
13850;DHT22;6995;52.618;13.488;2023-05-02T08:12:26;15.90;99.90
13850;DHT22;6995;52.618;13.488;2023-05-02T08:14:52;15.70;99.90
13850;DHT22;6995;52.618;13.488;2023-05-02T08:17:18;15.20;99.90
13850;DHT22;6995;52.618;13.488;2023-05-02T08:19:43;15.40;99.90
13850;DHT22;6995;52.618;13.488;2023-05-02T08:22:09;15.50;99.90
13850;DHT22;6995;52.618;13.488;2023-05-02T08:24:35;15.40;99.90
13850;DHT22;6995;52.618;13.488;2023-05-02T08:27:01;15.20;99.90
13850;DHT22;6995;52.618;13.488;2023-05-02T08:29:29;15.00;99.90
13850;DHT22;6995;52.618;13.488;2023-05-02T08:31:55;15.00;99.90
13850;DHT22;6995;52.618;13.488;2023-05-02T08:34:21;15.00;99.90
13850;DHT22;6995;52.618;13.488;2023-05-02T08:36:47;14.80;99.90
13850;DHT22;6995;52.618;13.488;2023-05-02T08:39:12;14.80;99.90
13850;DHT22;6995;52.618;13.488;2023-05-02T08:41:38;14.50;99.90
13850;DHT22;6995;52.618;13.488;2023-05-02T08:44:05;14.50;99.90
13850;DHT22;6995;52.618;13.488;2023-05-02T08:46:34;14.50;99.90
13850;DHT22;6995;52.618;13.488;2023-05-02T08:49:02;14.50;99.90
13850;DHT22;6995;52.618;13.488;2023-05-02T08:51:29;14.50;99.90
13850;DHT22;6995;52.618;13.488;2023-05-02T08:53:55;14.50;99.90
13850;DHT22;6995;52.618;13.488;2023-05-02T08:56:21;14.60;99.90
13850;DHT22;6995;52.618;13.488;2023-05-02T08:58:47;14.80;99.90
13850;DHT22;6995;52.618;13.488;2023-05-02T09:01:14;14.80;99.90
13850;DHT22;6995;52.618;13.488;2023-05-02T09:03:45;14.90;99.90
13850;DHT22;6995;52.618;13.488;2023-05-02T09:06:12;14.90;99.90
13850;DHT22;6995;52.618;13.488;2023-05-02T09:08:38;15.10;99.90
13850;DHT22;6995;52.618;13.488;2023-05-02T09:11:11;15.20;99.90
13850;DHT22;6995;52.618;13.488;2023-05-02T09:13:44;15.40;99.90
13850;DHT22;6995;52.618;13.488;2023-05-02T09:16:14;15.30;99.90
13850;DHT22;6995;52.618;13.488;2023-05-02T09:18:43;15.00;99.90
13850;DHT22;6995;52.618;13.488;2023-05-02T09:21:17;14.80;99.90
13850;DHT22;6995;52.618;13.488;2023-05-02T09:24:16;14.50;99.90
13850;DHT22;6995;52.618;13.488;2023-05-02T09:27:11;14.40;99.90
13850;DHT22;6995;52.618;13.488;2023-05-02T09:29:37;14.50;99.90
13850;DHT22;6995;52.618;13.488;2023-05-02T09:32:05;14.90;99.90
13850;DHT22;6995;52.618;13.488;2023-05-02T09:34:31;14.70;99.90
13850;DHT22;6995;52.618;13.488;2023-05-02T09:36:57;14.70;99.90
13850;DHT22;6995;52.618;13.488;2023-05-02T09:39:24;14.60;99.90
13850;DHT22;6995;52.618;13.488;2023-05-02T09:41:50;14.70;99.90
13850;DHT22;6995;52.618;13.488;2023-05-02T09:44:18;14.80;99.90
13850;DHT22;6995;52.618;13.488;2023-05-02T09:46:46;14.90;99.90
13850;DHT22;6995;52.618;13.488;2023-05-02T09:49:12;14.60;99.90
13850;DHT22;6995;52.618;13.488;2023-05-02T09:51:46;15.00;99.90
13850;DHT22;6995;52.618;13.488;2023-05-02T09:54:34;15.10;99.90
13850;DHT22;6995;52.618;13.488;2023-05-02T09:57:00;15.10;99.90
13850;DHT22;6995;52.618;13.488;2023-05-02T09:59:26;15.30;99.90
13850;DHT22;6995;52.618;13.488;2023-05-02T10:01:55;15.60;99.90
13850;DHT22;6995;52.618;13.488;2023-05-02T10:04:23;16.10;99.90
13850;DHT22;6995;52.618;13.488;2023-05-02T10:06:51;15.80;99.90
13850;DHT22;6995;52.618;13.488;2023-05-02T10:09:18;15.60;99.90
13850;DHT22;6995;52.618;13.488;2023-05-02T10:11:45;15.50;99.90
13850;DHT22;6995;52.618;13.488;2023-05-02T10:14:11;15.60;99.90
13850;DHT22;6995;52.618;13.488;2023-05-02T10:16:50;15.60;99.90
13850;DHT22;6995;52.618;13.488;2023-05-02T10:19:23;15.20;99.90
13850;DHT22;6995;52.618;13.488;2023-05-02T10:21:52;14.90;99.90
13850;DHT22;6995;52.618;13.488;2023-05-02T10:24:20;15.30;99.90
13850;DHT22;6995;52.618;13.488;2023-05-02T10:26:46;15.40;99.90
13850;DHT22;6995;52.618;13.488;2023-05-02T10:29:12;15.40;99.90
13850;DHT22;6995;52.618;13.488;2023-05-02T10:31:38;15.10;99.90
13850;DHT22;6995;52.618;13.488;2023-05-02T10:34:08;15.60;99.90
13850;DHT22;6995;52.618;13.488;2023-05-02T10:36:35;15.20;99.90
13850;DHT22;6995;52.618;13.488;2023-05-02T10:39:01;15.40;99.90
13850;DHT22;6995;52.618;13.488;2023-05-02T10:41:29;15.20;99.90
13850;DHT22;6995;52.618;13.488;2023-05-02T10:43:55;15.00;99.90
13850;DHT22;6995;52.618;13.488;2023-05-02T10:49:06;14.10;99.90
13850;DHT22;6995;52.618;13.488;2023-05-02T10:51:33;13.80;99.90
13850;DHT22;6995;52.618;13.488;2023-05-02T10:59:42;13.00;99.90
13850;DHT22;6995;52.618;13.488;2023-05-02T11:05:06;12.90;99.90
13850;DHT22;6995;52.618;13.488;2023-05-02T11:07:36;12.70;99.90
13850;DHT22;6995;52.618;13.488;2023-05-02T11:12:43;12.40;99.90
13850;DHT22;6995;52.618;13.488;2023-05-02T11:15:13;12.30;99.90
13850;DHT22;6995;52.618;13.488;2023-05-02T11:18:08;12.10;99.90
13850;DHT22;6995;52.618;13.488;2023-05-02T11:20:42;12.00;99.90
13850;DHT22;6995;52.618;13.488;2023-05-02T11:25:45;12.40;99.90
13850;DHT22;6995;52.618;13.488;2023-05-02T11:31:02;12.60;99.90
13850;DHT22;6995;52.618;13.488;2023-05-02T11:33:28;12.70;99.90
13850;DHT22;6995;52.618;13.488;2023-05-02T11:35:54;12.80;99.90
13850;DHT22;6995;52.618;13.488;2023-05-02T11:38:24;13.00;99.90
13850;DHT22;6995;52.618;13.488;2023-05-02T11:40:51;12.90;99.90
13850;DHT22;6995;52.618;13.488;2023-05-02T11:43:18;13.30;99.90
13850;DHT22;6995;52.618;13.488;2023-05-02T11:45:46;13.60;99.90
13850;DHT22;6995;52.618;13.488;2023-05-02T11:48:14;13.40;99.90
13850;DHT22;6995;52.618;13.488;2023-05-02T11:50:51;13.50;99.90
13850;DHT22;6995;52.618;13.488;2023-05-02T11:53:27;13.50;99.90
13850;DHT22;6995;52.618;13.488;2023-05-02T11:55:58;13.90;99.90
13850;DHT22;6995;52.618;13.488;2023-05-02T11:58:25;14.20;99.90
13850;DHT22;6995;52.618;13.488;2023-05-02T12:00:56;13.80;99.90
13850;DHT22;6995;52.618;13.488;2023-05-02T12:03:30;13.50;99.90
13850;DHT22;6995;52.618;13.488;2023-05-02T12:05:57;14.00;99.90
13850;DHT22;6995;52.618;13.488;2023-05-02T12:08:33;14.00;99.90
13850;DHT22;6995;52.618;13.488;2023-05-02T12:10:58;13.90;99.90
13850;DHT22;6995;52.618;13.488;2023-05-02T12:13:25;13.90;99.90
13850;DHT22;6995;52.618;13.488;2023-05-02T12:15:52;13.90;99.90
13850;DHT22;6995;52.618;13.488;2023-05-02T12:18:21;13.30;99.90
13850;DHT22;6995;52.618;13.488;2023-05-02T12:20:50;13.80;99.90
13850;DHT22;6995;52.618;13.488;2023-05-02T12:23:18;13.20;99.90
13850;DHT22;6995;52.618;13.488;2023-05-02T12:25:45;12.90;99.90
13850;DHT22;6995;52.618;13.488;2023-05-02T12:28:10;13.00;99.90
13850;DHT22;6995;52.618;13.488;2023-05-02T12:30:37;13.20;99.90
13850;DHT22;6995;52.618;13.488;2023-05-02T12:33:05;13.20;99.90
13850;DHT22;6995;52.618;13.488;2023-05-02T12:35:32;13.50;99.90
13850;DHT22;6995;52.618;13.488;2023-05-02T12:40:35;13.50;99.90
13850;DHT22;6995;52.618;13.488;2023-05-02T12:43:04;13.30;99.90
13850;DHT22;6995;52.618;13.488;2023-05-02T12:45:33;13.20;99.90
13850;DHT22;6995;52.618;13.488;2023-05-02T12:48:24;13.20;99.90
13850;DHT22;6995;52.618;13.488;2023-05-02T12:50:51;13.30;99.90
13850;DHT22;6995;52.618;13.488;2023-05-02T12:53:40;12.90;99.90
13850;DHT22;6995;52.618;13.488;2023-05-02T12:56:06;14.10;99.90
13850;DHT22;6995;52.618;13.488;2023-05-02T12:58:40;14.70;99.90
13850;DHT22;6995;52.618;13.488;2023-05-02T13:01:07;14.40;99.90
13850;DHT22;6995;52.618;13.488;2023-05-02T13:03:33;13.70;99.90
13850;DHT22;6995;52.618;13.488;2023-05-02T13:05:58;14.00;99.90
13850;DHT22;6995;52.618;13.488;2023-05-02T13:08:24;13.90;99.90
13850;DHT22;6995;52.618;13.488;2023-05-02T13:10:49;14.40;99.90
13850;DHT22;6995;52.618;13.488;2023-05-02T13:13:15;15.10;99.90
13850;DHT22;6995;52.618;13.488;2023-05-02T13:15:41;15.60;99.90
13850;DHT22;6995;52.618;13.488;2023-05-02T13:18:07;15.70;99.90
13850;DHT22;6995;52.618;13.488;2023-05-02T13:20:33;15.60;99.90
13850;DHT22;6995;52.618;13.488;2023-05-02T13:22:59;15.50;99.90
13850;DHT22;6995;52.618;13.488;2023-05-02T13:25:24;14.40;99.90
13850;DHT22;6995;52.618;13.488;2023-05-02T13:27:51;14.50;99.90
13850;DHT22;6995;52.618;13.488;2023-05-02T13:30:16;14.10;99.90
13850;DHT22;6995;52.618;13.488;2023-05-02T13:32:42;13.50;99.90
13850;DHT22;6995;52.618;13.488;2023-05-02T13:35:08;14.10;99.90
13850;DHT22;6995;52.618;13.488;2023-05-02T13:37:34;13.50;99.90
13850;DHT22;6995;52.618;13.488;2023-05-02T13:39:59;13.70;99.90
13850;DHT22;6995;52.618;13.488;2023-05-02T13:42:25;13.30;99.90
13850;DHT22;6995;52.618;13.488;2023-05-02T13:44:51;14.10;99.90
13850;DHT22;6995;52.618;13.488;2023-05-02T13:47:16;13.60;99.90
13850;DHT22;6995;52.618;13.488;2023-05-02T13:49:42;13.50;99.90
13850;DHT22;6995;52.618;13.488;2023-05-02T13:52:08;13.50;99.90
13850;DHT22;6995;52.618;13.488;2023-05-02T13:54:33;13.30;99.90
13850;DHT22;6995;52.618;13.488;2023-05-02T13:56:59;13.10;99.90
13850;DHT22;6995;52.618;13.488;2023-05-02T13:59:25;13.30;99.90
13850;DHT22;6995;52.618;13.488;2023-05-02T14:01:50;13.20;99.90
13850;DHT22;6995;52.618;13.488;2023-05-02T14:04:16;13.30;99.90
13850;DHT22;6995;52.618;13.488;2023-05-02T14:06:42;13.20;99.90
13850;DHT22;6995;52.618;13.488;2023-05-02T14:09:08;13.30;99.90
13850;DHT22;6995;52.618;13.488;2023-05-02T14:11:34;13.10;99.90
13850;DHT22;6995;52.618;13.488;2023-05-02T14:13:59;12.60;99.90
13850;DHT22;6995;52.618;13.488;2023-05-02T14:16:25;12.50;99.90
13850;DHT22;6995;52.618;13.488;2023-05-02T14:19:09;12.50;99.90
13850;DHT22;6995;52.618;13.488;2023-05-02T14:21:35;12.50;99.90
13850;DHT22;6995;52.618;13.488;2023-05-02T14:24:03;12.70;99.90
13850;DHT22;6995;52.618;13.488;2023-05-02T14:26:29;12.20;99.90
13850;DHT22;6995;52.618;13.488;2023-05-02T14:28:54;12.40;99.90
13850;DHT22;6995;52.618;13.488;2023-05-02T14:31:21;12.10;99.90
13850;DHT22;6995;52.618;13.488;2023-05-02T14:33:46;12.10;99.90
13850;DHT22;6995;52.618;13.488;2023-05-02T14:36:12;11.90;99.90
13850;DHT22;6995;52.618;13.488;2023-05-02T14:38:37;12.00;99.90
13850;DHT22;6995;52.618;13.488;2023-05-02T14:41:03;11.90;99.90
13850;DHT22;6995;52.618;13.488;2023-05-02T14:43:30;11.80;99.90
13850;DHT22;6995;52.618;13.488;2023-05-02T14:45:55;11.70;99.90
13850;DHT22;6995;52.618;13.488;2023-05-02T14:48:22;11.80;99.90
13850;DHT22;6995;52.618;13.488;2023-05-02T14:50:47;11.50;99.90
13850;DHT22;6995;52.618;13.488;2023-05-02T14:53:13;11.60;99.90
13850;DHT22;6995;52.618;13.488;2023-05-02T14:55:39;11.40;99.90
13850;DHT22;6995;52.618;13.488;2023-05-02T14:58:05;11.40;99.90
13850;DHT22;6995;52.618;13.488;2023-05-02T15:00:33;11.60;99.90
13850;DHT22;6995;52.618;13.488;2023-05-02T15:02:59;11.70;99.90
13850;DHT22;6995;52.618;13.488;2023-05-02T15:05:26;11.70;99.90
13850;DHT22;6995;52.618;13.488;2023-05-02T15:07:51;11.60;99.90
13850;DHT22;6995;52.618;13.488;2023-05-02T15:10:17;11.90;99.90
13850;DHT22;6995;52.618;13.488;2023-05-02T15:12:43;12.10;99.90
13850;DHT22;6995;52.618;13.488;2023-05-02T15:15:10;12.20;99.90
13850;DHT22;6995;52.618;13.488;2023-05-02T15:17:36;12.50;99.90
13850;DHT22;6995;52.618;13.488;2023-05-02T15:20:01;12.80;99.90
13850;DHT22;6995;52.618;13.488;2023-05-02T15:22:28;13.00;99.90
13850;DHT22;6995;52.618;13.488;2023-05-02T15:24:54;12.80;99.90
13850;DHT22;6995;52.618;13.488;2023-05-02T15:27:19;12.80;99.90
13850;DHT22;6995;52.618;13.488;2023-05-02T15:29:45;12.90;99.90
13850;DHT22;6995;52.618;13.488;2023-05-02T15:32:11;12.80;99.90
13850;DHT22;6995;52.618;13.488;2023-05-02T15:34:36;13.00;99.90
13850;DHT22;6995;52.618;13.488;2023-05-02T15:37:02;12.90;99.90
13850;DHT22;6995;52.618;13.488;2023-05-02T15:39:27;13.00;99.90
13850;DHT22;6995;52.618;13.488;2023-05-02T15:41:53;13.10;99.90
13850;DHT22;6995;52.618;13.488;2023-05-02T15:44:19;13.00;99.90
13850;DHT22;6995;52.618;13.488;2023-05-02T15:46:44;12.60;99.90
13850;DHT22;6995;52.618;13.488;2023-05-02T15:49:11;12.60;99.90
13850;DHT22;6995;52.618;13.488;2023-05-02T15:51:37;12.50;99.90
13850;DHT22;6995;52.618;13.488;2023-05-02T15:54:03;12.40;99.90
13850;DHT22;6995;52.618;13.488;2023-05-02T15:56:31;12.30;99.90
13850;DHT22;6995;52.618;13.488;2023-05-02T15:58:56;12.50;99.90
13850;DHT22;6995;52.618;13.488;2023-05-02T16:01:22;12.50;99.90
13850;DHT22;6995;52.618;13.488;2023-05-02T16:03:48;14.20;99.90
13850;DHT22;6995;52.618;13.488;2023-05-02T16:06:14;15.90;95.20
13850;DHT22;6995;52.618;13.488;2023-05-02T16:08:41;16.70;88.70
13850;DHT22;6995;52.618;13.488;2023-05-02T16:11:09;16.20;86.00
13850;DHT22;6995;52.618;13.488;2023-05-02T16:13:34;18.10;84.30